Time;durP1;ratioP1;P1;durP2;ratioP2;P2;SDS_P1;SDS_P2;PMS_P1;PMS_P2;Temp;Humidity;BMP_temperature;BMP_pressure;BME280_temperature;BME280_humidity;BME280_pressure;Samples;Min_cycle;Max_cycle;Signal;HPM_P1;HPM_P2
2023/07/11 00:01:38;;;;;;;4.18;2.13;;;;;;;23.04;53.03;101793.22;5010886;28;20326;-44
2023/07/11 00:04:03;;;;;;;7.45;2.60;;;;;;;23.10;53.49;101786.84;5011492;28;20034;-47
2023/07/11 00:06:29;;;;;;;5.95;2.70;;;;;;;23.07;53.98;101784.25;5010117;28;20069;-49
2023/07/11 00:08:54;;;;;;;5.53;2.70;;;;;;;23.05;53.74;101783.44;5009498;28;20382;-45
2023/07/11 00:11:20;;;;;;;6.05;3.00;;;;;;;23.04;54.04;101782.56;5010113;28;20058;-47
2023/07/11 00:13:46;;;;;;;6.38;2.75;;;;;;;23.08;54.15;101782.47;5007952;28;20595;-47
2023/07/11 00:16:13;;;;;;;6.18;2.33;;;;;;;23.06;53.93;101778.06;5010511;28;20463;-46
2023/07/11 00:18:39;;;;;;;5.13;2.45;;;;;;;23.10;54.43;101778.00;5009462;28;20034;-44
2023/07/11 00:21:04;;;;;;;8.07;2.72;;;;;;;23.02;54.59;101772.84;5010345;28;20096;-43
2023/07/11 00:23:30;;;;;;;6.80;2.22;;;;;;;23.01;54.69;101764.00;5010050;28;20084;-48
2023/07/11 00:25:56;;;;;;;5.75;2.75;;;;;;;23.01;54.70;101763.13;5011545;28;20041;-49
2023/07/11 00:28:22;;;;;;;6.00;2.50;;;;;;;23.03;54.56;101766.63;5011636;28;20524;-45
2023/07/11 00:30:50;;;;;;;5.72;2.60;;;;;;;23.05;54.12;101764.81;5013470;28;20116;-47
2023/07/11 00:33:16;;;;;;;6.03;2.72;;;;;;;23.04;54.37;101766.59;5012821;28;20048;-45
2023/07/11 00:35:47;;;;;;;7.32;3.03;;;;;;;22.94;54.55;101765.06;5013940;28;20037;-45
2023/07/11 00:38:15;;;;;;;7.72;2.80;;;;;;;22.95;54.53;101755.28;5012557;28;20038;-49
2023/07/11 00:40:44;;;;;;;6.93;2.97;;;;;;;22.96;54.26;101751.72;5013547;28;20044;-46
2023/07/11 00:43:12;;;;;;;5.75;2.78;;;;;;;22.94;54.34;101751.75;5014339;28;20033;-43
2023/07/11 00:45:59;;;;;;;6.10;2.40;;;;;;;23.03;54.35;101746.22;5013665;28;20096;-50
2023/07/11 00:48:24;;;;;;;5.78;2.60;;;;;;;23.07;54.05;101744.34;5013705;28;20052;-43
2023/07/11 00:50:52;;;;;;;4.47;2.45;;;;;;;23.08;54.13;101732.81;5013160;28;20667;-44
2023/07/11 00:53:18;;;;;;;6.68;2.35;;;;;;;23.09;54.12;101733.69;5013699;28;20034;-50
2023/07/11 00:55:44;;;;;;;7.38;2.53;;;;;;;23.09;54.44;101728.38;5012960;28;20087;-47
2023/07/11 00:58:11;;;;;;;6.93;2.60;;;;;;;23.09;54.15;101728.38;5013994;28;20116;-45
2023/07/11 01:00:36;;;;;;;5.05;2.53;;;;;;;23.09;54.11;101728.38;5012405;28;20061;-46
2023/07/11 01:03:02;;;;;;;5.95;2.45;;;;;;;23.09;54.22;101725.72;5014494;28;20500;-50
2023/07/11 01:05:27;;;;;;;6.65;2.67;;;;;;;23.07;54.96;101720.41;5013478;28;20520;-44
2023/07/11 01:07:52;;;;;;;6.85;2.80;;;;;;;23.02;55.07;101717.00;5013138;28;20120;-47
2023/07/11 01:10:18;;;;;;;6.82;2.67;;;;;;;22.95;55.42;101713.63;5013321;28;20041;-47
2023/07/11 01:12:48;;;;;;;6.05;2.53;;;;;;;22.95;55.15;101724.25;5013257;28;20038;-47
2023/07/11 01:15:14;;;;;;;5.10;2.42;;;;;;;22.94;55.05;101708.34;5013620;28;20117;-44
2023/07/11 01:17:40;;;;;;;5.72;2.80;;;;;;;22.92;54.85;101710.19;5013770;28;20474;-45
2023/07/11 01:20:08;;;;;;;5.40;2.60;;;;;;;22.84;54.58;101699.72;5013904;28;20030;-47
2023/07/11 01:22:36;;;;;;;5.47;2.35;;;;;;;22.83;54.90;101707.72;5013992;28;20069;-49
2023/07/11 01:25:08;;;;;;;5.22;2.75;;;;;;;22.83;54.91;101694.44;5013360;28;20026;-47
2023/07/11 01:27:34;;;;;;;5.65;2.72;;;;;;;22.76;55.44;101688.38;5013366;28;20114;-45
2023/07/11 01:30:03;;;;;;;6.45;3.03;;;;;;;22.62;56.41;101686.03;5013042;28;20113;-44
2023/07/11 01:32:28;;;;;;;4.95;2.42;;;;;;;22.71;55.17;101678.75;5013006;28;20030;-47
2023/07/11 01:34:54;;;;;;;7.88;2.70;;;;;;;22.66;55.09;101671.75;5013084;28;20414;-47
2023/07/11 01:37:19;;;;;;;5.80;2.47;;;;;;;22.73;53.79;101666.34;5013052;28;20045;-46
2023/07/11 01:39:44;;;;;;;5.53;2.40;;;;;;;22.79;52.70;101666.19;5012624;28;20040;-45
2023/07/11 01:42:10;;;;;;;6.03;2.40;;;;;;;22.81;51.14;101659.91;5013147;28;20057;-44
2023/07/11 01:44:35;;;;;;;5.90;2.50;;;;;;;22.67;50.51;101651.38;5012218;28;20034;-44
2023/07/11 01:47:02;;;;;;;6.03;2.30;;;;;;;22.75;50.37;101651.22;5013068;28;20065;-44
2023/07/11 01:49:27;;;;;;;4.25;2.30;;;;;;;23.01;49.40;101646.09;5012252;28;20488;-43
2023/07/11 01:52:21;;;;;;;8.25;2.40;;;;;;;23.12;49.83;101646.69;5012124;28;20036;-44
2023/07/11 01:54:47;;;;;;;6.55;2.33;;;;;;;23.04;50.12;101638.94;5011910;28;20509;-45
2023/07/11 01:57:13;;;;;;;6.15;2.53;;;;;;;22.73;49.76;101639.75;5013486;28;20092;-48
2023/07/11 01:59:39;;;;;;;6.78;2.55;;;;;;;22.96;49.37;101632.94;5011788;28;20044;-46
2023/07/11 02:02:05;;;;;;;5.82;2.25;;;;;;;22.71;49.05;101621.13;5012123;28;20034;-44
2023/07/11 02:04:33;;;;;;;7.55;2.40;;;;;;;23.07;48.58;101616.69;5013228;28;20153;-46
2023/07/11 02:06:58;;;;;;;6.40;2.42;;;;;;;23.31;47.96;101615.16;5014126;28;20503;-43
2023/07/11 02:09:24;;;;;;;4.68;2.30;;;;;;;23.21;48.61;101611.00;5012690;28;20038;-46
2023/07/11 02:11:50;;;;;;;6.75;2.38;;;;;;;22.88;48.52;101613.63;5011807;28;20389;-47
2023/07/11 02:14:20;;;;;;;4.78;2.15;;;;;;;23.12;47.67;101606.78;5013069;28;20041;-50
2023/07/11 02:16:50;;;;;;;6.97;2.30;;;;;;;23.33;47.41;101595.59;5011786;28;20504;-48
2023/07/11 02:19:20;;;;;;;4.28;2.38;;;;;;;23.24;48.14;101592.28;5012189;28;20481;-45
2023/07/11 02:21:45;;;;;;;4.45;2.30;;;;;;;23.36;48.23;101592.81;5011478;28;20034;-44
2023/07/11 02:24:13;;;;;;;5.53;2.30;;;;;;;23.28;48.80;101586.00;5012378;28;20435;-47
2023/07/11 02:26:38;;;;;;;6.32;2.30;;;;;;;23.22;48.50;101589.69;5012139;28;20042;-48
2023/07/11 02:29:04;;;;;;;3.95;2.08;;;;;;;23.25;48.59;101572.75;5012235;28;20033;-47
2023/07/11 02:31:31;;;;;;;4.93;2.17;;;;;;;23.17;48.94;101577.44;5010529;28;20141;-49
2023/07/11 02:33:57;;;;;;;5.45;2.40;;;;;;;23.18;49.50;101580.03;5011231;28;20030;-49
2023/07/11 02:36:23;;;;;;;5.53;2.17;;;;;;;23.12;49.74;101569.56;5012486;28;20041;-45
2023/07/11 02:38:48;;;;;;;7.13;2.90;;;;;;;22.94;49.94;101572.72;5010673;28;20523;-47
2023/07/11 02:41:14;;;;;;;5.65;2.70;;;;;;;23.03;50.15;101573.34;5011684;28;20034;-46
2023/07/11 02:43:39;;;;;;;5.53;2.42;;;;;;;22.99;49.84;101565.50;5011023;28;20516;-46
2023/07/11 02:46:04;;;;;;;5.78;2.60;;;;;;;22.88;51.04;101567.56;5011806;28;20034;-46
2023/07/11 02:48:30;;;;;;;6.43;2.40;;;;;;;22.89;50.96;101564.00;5009941;28;20041;-47
2023/07/11 02:50:55;;;;;;;5.60;2.60;;;;;;;23.06;50.85;101559.09;5011028;28;20062;-51
2023/07/11 02:53:20;;;;;;;8.85;2.83;;;;;;;23.03;51.35;101553.88;5010721;28;20045;-45
2023/07/11 02:55:46;;;;;;;4.97;2.53;;;;;;;22.71;52.39;101552.03;5011119;28;20117;-46
2023/07/11 02:58:11;;;;;;;7.28;2.85;;;;;;;22.89;51.86;101556.88;5011058;28;20113;-46
2023/07/11 03:00:37;;;;;;;6.82;2.63;;;;;;;23.01;51.53;101548.59;5010494;28;20038;-45
2023/07/11 03:03:03;;;;;;;7.18;2.72;;;;;;;22.97;52.18;101546.06;5011579;28;20034;-44
2023/07/11 03:05:29;;;;;;;5.85;2.80;;;;;;;22.76;52.56;101551.94;5010856;28;20092;-46
2023/07/11 03:07:54;;;;;;;5.53;2.70;;;;;;;22.81;52.82;101550.91;5010370;28;20124;-44
2023/07/11 03:10:19;;;;;;;6.50;2.55;;;;;;;22.75;52.93;101544.91;5010664;28;20500;-46
2023/07/11 03:12:45;;;;;;;6.80;2.90;;;;;;;22.64;52.75;101546.00;5011015;28;20127;-46
2023/07/11 03:15:10;;;;;;;5.07;2.60;;;;;;;22.66;52.19;101538.88;5012183;28;20101;-48
2023/07/11 03:17:35;;;;;;;7.55;2.65;;;;;;;22.49;52.08;101538.44;5011206;28;20045;-47
2023/07/11 03:20:01;;;;;;;6.20;2.70;;;;;;;22.68;51.69;101530.84;5011416;28;20126;-51
2023/07/11 03:22:28;;;;;;;6.43;2.60;;;;;;;22.74;51.14;101533.38;5011309;28;20504;-47
2023/07/11 03:24:53;;;;;;;5.00;2.47;;;;;;;22.63;51.28;101528.28;5011005;28;20026;-46
2023/07/11 03:27:19;;;;;;;11.18;3.00;;;;;;;22.51;51.40;101528.59;5011013;28;20183;-50
2023/07/11 03:29:44;;;;;;;8.98;2.85;;;;;;;22.56;51.10;101525.84;5010143;28;20034;-43
2023/07/11 03:32:10;;;;;;;9.30;2.58;;;;;;;22.31;51.63;101530.91;5010587;28;20030;-47
2023/07/11 03:34:36;;;;;;;5.55;2.70;;;;;;;22.36;51.18;101521.03;5011413;28;20088;-49
2023/07/11 03:37:01;;;;;;;7.32;2.70;;;;;;;22.41;51.23;101515.59;5011276;28;20456;-50
2023/07/11 03:39:26;;;;;;;5.95;2.60;;;;;;;22.26;51.45;101512.41;5010347;28;20034;-46
2023/07/11 03:41:52;;;;;;;6.47;2.60;;;;;;;22.45;50.67;101507.50;5010331;28;20493;-47
2023/07/11 03:44:17;;;;;;;8.52;2.65;;;;;;;22.44;50.59;101502.25;5010741;28;20139;-52
2023/07/11 03:46:43;;;;;;;5.65;2.80;;;;;;;22.30;51.16;101505.25;5010266;28;20041;-45
2023/07/11 03:49:09;;;;;;;6.90;3.03;;;;;;;22.26;51.23;101496.47;5009783;28;20411;-46
2023/07/11 03:51:35;;;;;;;5.57;2.80;;;;;;;22.37;50.72;101490.03;5009575;28;20088;-44
2023/07/11 03:54:01;;;;;;;6.82;2.85;;;;;;;22.45;50.62;101490.69;5010659;28;20057;-48
2023/07/11 03:56:27;;;;;;;6.13;2.80;;;;;;;22.38;50.72;101486.47;5010536;28;20551;-45
2023/07/11 03:58:53;;;;;;;5.30;2.55;;;;;;;22.59;50.48;101492.09;5009300;28;20128;-51
2023/07/11 04:01:19;;;;;;;3.97;2.50;;;;;;;22.40;50.89;101487.28;5009984;28;20037;-49
2023/07/11 04:03:44;;;;;;;6.28;2.88;;;;;;;22.27;51.05;101492.91;5009532;28;20030;-43
2023/07/11 04:06:10;;;;;;;7.10;2.83;;;;;;;22.32;51.00;101489.28;5010099;28;20049;-44
2023/07/11 04:08:35;;;;;;;5.40;2.72;;;;;;;22.39;51.32;101481.09;5008967;28;20119;-43
2023/07/11 04:11:01;;;;;;;8.57;3.00;;;;;;;22.34;51.27;101487.44;5009635;28;20407;-49
2023/07/11 04:13:27;;;;;;;6.70;2.90;;;;;;;22.37;51.60;101479.41;5010196;28;20045;-45
2023/07/11 04:15:52;;;;;;;4.22;2.63;;;;;;;22.53;51.13;101473.66;5009613;28;20038;-43
2023/07/11 04:18:18;;;;;;;5.90;2.90;;;;;;;22.48;50.97;101475.56;5010867;28;20049;-43
2023/07/11 04:20:45;;;;;;;8.02;3.25;;;;;;;22.11;52.01;101490.69;5010404;28;20040;-50
2023/07/11 04:23:11;;;;;;;7.60;3.00;;;;;;;22.41;51.64;101475.75;5011793;28;20117;-47
2023/07/11 04:25:37;;;;;;;5.38;2.95;;;;;;;22.83;50.19;101471.09;5010509;28;20496;-46
2023/07/11 04:28:05;;;;;;;5.65;2.80;;;;;;;23.04;49.63;101465.19;5010285;28;20041;-44
2023/07/11 04:30:31;;;;;;;6.63;3.03;;;;;;;22.46;50.91;101469.41;5009092;28;20048;-48
2023/07/11 04:32:56;;;;;;;5.63;2.88;;;;;;;22.59;50.94;101461.97;5010027;28;20471;-45
2023/07/11 04:35:22;;;;;;;10.77;3.35;;;;;;;22.63;50.47;101460.97;5010485;28;20511;-43
2023/07/11 04:37:47;;;;;;;6.43;3.00;;;;;;;22.94;49.78;101461.03;5009970;28;20045;-43
2023/07/11 04:40:13;;;;;;;6.03;3.10;;;;;;;22.71;50.34;101458.13;5010769;28;20108;-48
2023/07/11 04:42:38;;;;;;;6.90;3.28;;;;;;;22.59;50.50;101452.22;5010625;28;20030;-50
2023/07/11 04:45:05;;;;;;;8.35;3.20;;;;;;;22.53;50.53;101454.16;5010714;28;20029;-45
2023/07/11 04:47:31;;;;;;;7.60;3.30;;;;;;;22.88;50.31;101446.13;5009075;28;20124;-46
2023/07/11 04:49:56;;;;;;;5.70;3.10;;;;;;;23.00;50.02;101450.22;5009214;28;20038;-46
2023/07/11 04:52:21;;;;;;;8.60;3.30;;;;;;;23.01;49.82;101441.34;5009380;28;20099;-44
2023/07/11 04:54:47;;;;;;;8.77;3.70;;;;;;;22.60;51.44;101437.16;5009195;28;20042;-49
2023/07/11 04:57:12;;;;;;;11.88;3.70;;;;;;;23.00;50.27;101432.47;5009540;28;20026;-44
2023/07/11 04:59:37;;;;;;;8.85;3.50;;;;;;;22.79;50.97;101430.44;5008690;28;20037;-44
2023/07/11 05:02:03;;;;;;;9.05;3.25;;;;;;;22.99;50.84;101430.72;5009078;28;20571;-46
2023/07/11 05:04:28;;;;;;;6.25;3.33;;;;;;;23.11;50.61;101423.34;5009388;28;20118;-45
2023/07/11 05:06:53;;;;;;;6.35;3.28;;;;;;;23.13;50.71;101416.16;5008769;28;20037;-42
2023/07/11 05:09:19;;;;;;;8.18;3.70;;;;;;;22.75;51.44;101415.47;5008978;28;20046;-43
2023/07/11 05:11:44;;;;;;;6.15;3.45;;;;;;;23.12;50.34;101417.06;5010247;28;20681;-46
2023/07/11 05:14:10;;;;;;;7.30;3.50;;;;;;;23.06;50.43;101416.34;5014219;28;20496;-43
2023/07/11 05:16:35;;;;;;;6.30;3.15;;;;;;;23.38;50.04;101420.69;5013289;28;20038;-48
2023/07/11 05:19:01;;;;;;;11.35;3.60;;;;;;;23.52;49.96;101409.66;5012348;28;20037;-44
2023/07/11 05:21:27;;;;;;;8.55;3.38;;;;;;;23.89;48.96;101408.47;5011449;28;20045;-49
2023/07/11 05:23:55;;;;;;;7.22;3.60;;;;;;;24.22;48.03;101402.91;5012103;28;20041;-51
2023/07/11 05:26:20;;;;;;;7.20;3.35;;;;;;;24.65;47.14;101391.56;5012492;28;20038;-47
2023/07/11 05:28:46;;;;;;;7.90;3.60;;;;;;;24.37;48.14;101398.84;5011596;28;20057;-46
2023/07/11 05:31:12;;;;;;;8.13;3.60;;;;;;;25.02;46.88;101392.91;5012630;28;20036;-46
2023/07/11 05:33:37;;;;;;;7.88;3.50;;;;;;;26.00;44.42;101380.03;5012258;28;20066;-49
2023/07/11 05:36:21;;;;;;;9.40;3.58;;;;;;;27.11;41.85;101379.56;5012421;28;20497;-45
2023/07/11 05:38:47;;;;;;;6.65;3.22;;;;;;;27.93;40.20;101379.09;5011461;28;20125;-45
2023/07/11 05:41:12;;;;;;;5.90;3.20;;;;;;;28.25;38.96;101380.13;5012203;28;20385;-45
2023/07/11 05:43:38;;;;;;;7.30;3.08;;;;;;;28.70;38.49;101376.84;5011803;28;20040;-47
2023/07/11 05:46:03;;;;;;;8.25;3.45;;;;;;;29.32;37.44;101372.53;5012342;28;20487;-45
2023/07/11 05:48:28;;;;;;;9.55;2.75;;;;;;;29.73;36.90;101372.84;5012007;28;20433;-46
2023/07/11 05:51:02;;;;;;;6.32;2.97;;;;;;;30.11;35.57;101357.19;5011956;28;20033;-47
2023/07/11 05:53:29;;;;;;;6.15;2.88;;;;;;;30.27;35.39;101363.34;5013008;28;20124;-46
2023/07/11 05:55:55;;;;;;;9.27;3.25;;;;;;;30.35;36.15;101357.50;5011589;28;20107;-46
2023/07/11 05:58:20;;;;;;;9.70;2.90;;;;;;;30.85;34.64;101360.63;5011636;28;20037;-44
2023/07/11 06:00:46;;;;;;;6.78;2.78;;;;;;;31.32;34.46;101359.41;5011412;28;20041;-49
2023/07/11 06:03:11;;;;;;;8.70;2.80;;;;;;;31.55;33.52;101353.38;5009856;28;20092;-41
2023/07/11 06:05:37;;;;;;;6.40;2.83;;;;;;;31.72;32.67;101344.16;5010339;28;20046;-47
2023/07/11 06:08:02;;;;;;;5.80;2.70;;;;;;;31.99;32.23;101353.09;5010798;28;20026;-46
2023/07/11 06:10:28;;;;;;;8.52;2.60;;;;;;;32.09;31.61;101348.78;5010955;28;20151;-47
2023/07/11 06:12:53;;;;;;;10.77;2.70;;;;;;;32.76;30.61;101349.50;5011109;28;20030;-46
2023/07/11 06:15:19;;;;;;;8.88;2.65;;;;;;;33.37;30.02;101342.31;5011612;28;20471;-50
2023/07/11 06:17:44;;;;;;;9.27;2.63;;;;;;;33.55;29.52;101346.34;5010198;28;20038;-47
2023/07/11 06:20:11;;;;;;;9.65;2.10;;;;;;;33.96;28.52;101337.84;5011385;28;20030;-48
2023/07/11 06:22:37;;;;;;;7.80;2.20;;;;;;;33.92;28.46;101335.47;5010630;28;20564;-48
2023/07/11 06:25:02;;;;;;;8.07;2.25;;;;;;;34.61;26.87;101331.81;5010704;28;20034;-45
2023/07/11 06:27:29;;;;;;;6.78;2.35;;;;;;;34.29;27.34;101326.22;5011114;28;20458;-47
2023/07/11 06:29:54;;;;;;;8.73;2.35;;;;;;;34.54;26.89;101326.00;5010281;28;20026;-45
2023/07/11 06:32:19;;;;;;;7.75;2.20;;;;;;;34.74;26.83;101340.69;5011063;28;20038;-51
2023/07/11 06:34:45;;;;;;;9.48;2.17;;;;;;;34.79;26.59;101333.06;5010748;28;20034;-45
2023/07/11 06:37:11;;;;;;;7.03;2.78;;;;;;;33.81;27.76;101330.88;5011267;28;20136;-45
2023/07/11 06:39:37;;;;;;;11.63;2.53;;;;;;;34.22;27.43;101338.53;5010167;28;20223;-48
2023/07/11 06:42:02;;;;;;;8.90;2.75;;;;;;;34.62;27.21;101328.13;5010753;28;20045;-49
2023/07/11 06:44:28;;;;;;;5.93;2.22;;;;;;;34.66;26.78;101326.00;5011075;28;20092;-44
2023/07/11 06:46:53;;;;;;;4.68;2.35;;;;;;;33.74;27.98;101322.38;5010322;28;20026;-46
2023/07/11 06:49:19;;;;;;;7.57;2.85;;;;;;;33.74;28.23;101327.78;5010268;28;20045;-48
2023/07/11 06:51:44;;;;;;;6.60;2.30;;;;;;;34.61;27.43;101323.69;5010191;28;20045;-44
2023/07/11 06:54:09;;;;;;;8.18;2.60;;;;;;;33.32;28.62;101326.47;5010505;28;20405;-45
2023/07/11 06:56:35;;;;;;;5.97;2.42;;;;;;;34.41;27.41;101322.56;5010224;28;20038;-51
2023/07/11 06:59:00;;;;;;;7.78;2.58;;;;;;;35.08;26.38;101321.69;5010102;28;20084;-45
2023/07/11 07:01:25;;;;;;;6.63;2.55;;;;;;;34.25;27.95;101322.06;5012577;28;20096;-46
2023/07/11 07:03:51;;;;;;;6.63;2.45;;;;;;;34.35;27.72;101323.03;5009490;28;20042;-47
2023/07/11 07:06:17;;;;;;;5.85;2.22;;;;;;;35.21;26.93;101319.72;5009594;28;20627;-44
2023/07/11 07:08:43;;;;;;;6.25;2.22;;;;;;;34.37;28.28;101320.22;5008795;28;20038;-46
2023/07/11 07:11:09;;;;;;;7.53;2.33;;;;;;;35.04;26.97;101318.38;5009779;28;20125;-46
2023/07/11 07:13:34;;;;;;;6.50;2.40;;;;;;;33.21;29.13;101323.69;5009446;28;20100;-47
2023/07/11 07:16:02;;;;;;;10.65;2.60;;;;;;;33.03;29.97;101325.91;5010214;28;20042;-47
2023/07/11 07:18:34;;;;;;;8.05;2.50;;;;;;;34.31;27.84;101321.56;5009313;28;20042;-44
2023/07/11 07:21:01;;;;;;;7.03;2.20;;;;;;;33.85;28.40;101321.56;5010274;28;20033;-44
2023/07/11 07:23:27;;;;;;;5.40;2.05;;;;;;;35.11;26.34;101321.44;5011758;28;20501;-48
2023/07/11 07:25:58;;;;;;;6.20;2.40;;;;;;;33.81;27.87;101323.63;5009216;28;20412;-47
2023/07/11 07:28:23;;;;;;;10.35;2.33;;;;;;;34.40;27.27;101328.13;5009053;28;20049;-46
2023/07/11 07:30:52;;;;;;;8.13;2.20;;;;;;;33.40;29.40;101334.88;5008618;28;20091;-47
2023/07/11 07:33:18;;;;;;;5.28;2.10;;;;;;;33.75;28.67;101323.25;5010229;28;20048;-44
2023/07/11 07:35:43;;;;;;;7.22;2.20;;;;;;;32.98;30.18;101333.47;5008930;28;20493;-45
2023/07/11 07:38:10;;;;;;;5.57;2.40;;;;;;;32.83;30.85;101329.19;5009790;28;20033;-45
2023/07/11 07:40:35;;;;;;;8.52;2.20;;;;;;;33.55;29.98;101331.97;5008635;28;20496;-48
2023/07/11 07:43:01;;;;;;;7.88;2.28;;;;;;;33.77;29.91;101321.28;5007763;28;20052;-47
2023/07/11 07:45:26;;;;;;;8.32;2.30;;;;;;;34.29;28.43;101319.97;5009297;28;20037;-50
2023/07/11 07:47:52;;;;;;;12.23;2.10;;;;;;;35.06;27.84;101315.53;5009209;28;20050;-45
2023/07/11 07:50:17;;;;;;;6.13;2.03;;;;;;;35.11;27.00;101308.75;5008833;28;20378;-45
2023/07/11 07:52:42;;;;;;;6.25;2.28;;;;;;;34.04;29.34;101311.03;5008925;28;20117;-45
2023/07/11 07:55:08;;;;;;;5.25;2.15;;;;;;;34.56;28.06;101302.38;5009270;28;20030;-47
2023/07/11 07:57:34;;;;;;;6.88;2.00;;;;;;;34.98;28.30;101299.91;5009237;28;20615;-50
2023/07/11 07:59:59;;;;;;;6.55;2.20;;;;;;;34.17;28.37;101300.09;5002992;28;20452;-50
2023/07/11 08:02:25;;;;;;;5.25;2.08;;;;;;;34.77;27.89;101309.78;4992732;28;20134;-48
2023/07/11 08:04:50;;;;;;;9.95;2.63;;;;;;;34.10;28.50;101302.44;5009270;28;20029;-48
2023/07/11 08:07:16;;;;;;;6.18;2.17;;;;;;;35.00;27.49;101308.78;5009466;28;20042;-45
2023/07/11 08:09:42;;;;;;;5.88;2.10;;;;;;;33.44;29.72;101305.75;5008501;28;20412;-48
2023/07/11 08:12:09;;;;;;;6.55;2.10;;;;;;;33.79;29.24;101301.25;5009409;28;20030;-46
2023/07/11 08:14:40;;;;;;;6.53;1.90;;;;;;;34.04;28.57;101305.63;5009322;28;20042;-48
2023/07/11 08:17:06;;;;;;;7.47;2.13;;;;;;;34.95;27.05;101294.72;5010011;28;20088;-46
2023/07/11 08:19:32;;;;;;;4.80;2.00;;;;;;;35.19;26.04;101300.00;5009379;28;20628;-45
2023/07/11 08:21:57;;;;;;;6.45;1.88;;;;;;;35.48;26.15;101300.28;5010248;28;20029;-48
2023/07/11 08:24:23;;;;;;;6.10;1.88;;;;;;;35.76;25.55;101294.25;5010725;28;20034;-48
2023/07/11 08:26:50;;;;;;;6.40;2.00;;;;;;;34.24;28.04;101295.97;5010451;28;20128;-50
2023/07/11 08:29:15;;;;;;;6.00;2.00;;;;;;;35.14;26.56;101291.34;5010452;28;20060;-50
2023/07/11 08:31:41;;;;;;;5.18;1.85;;;;;;;34.27;27.79;101298.44;5009348;28;20068;-51
2023/07/11 08:34:06;;;;;;;7.20;1.88;;;;;;;33.39;29.03;101292.59;5009352;28;20038;-45
2023/07/11 08:36:31;;;;;;;4.05;1.75;;;;;;;34.84;26.63;101292.03;5007531;28;20041;-45
2023/07/11 08:38:57;;;;;;;4.85;1.70;;;;;;;34.57;26.99;101295.13;5009195;28;20057;-43
2023/07/11 08:41:30;;;;;;;5.38;2.10;;;;;;;33.15;29.56;101298.94;5009714;28;20378;-44
2023/07/11 08:44:04;;;;;;;4.65;1.80;;;;;;;32.13;30.45;101300.94;5009644;28;20037;-49
2023/07/11 08:46:41;;;;;;;5.97;2.00;;;;;;;31.55;31.95;101296.75;4990519;28;20660;-45
2023/07/11 08:49:15;;;;;;;4.63;1.98;;;;;;;31.76;31.81;101298.06;5005438;28;20476;-48
2023/07/11 08:51:45;;;;;;;7.97;2.30;;;;;;;30.72;33.62;101304.97;5013288;28;20088;-46
2023/07/11 08:54:37;;;;;;;9.80;2.10;;;;;;;31.04;33.23;101306.50;5013996;28;20032;-48
2023/07/11 08:57:02;;;;;;;7.53;2.15;;;;;;;30.28;35.92;101308.59;5012245;28;20092;-47
2023/07/11 08:59:37;;;;;;;5.07;2.30;;;;;;;30.23;35.53;101310.72;5012158;28;20038;-51
2023/07/11 09:02:09;;;;;;;8.20;2.28;;;;;;;29.92;36.27;101310.84;5012569;28;20084;-45
2023/07/11 09:04:37;;;;;;;6.88;2.17;;;;;;;30.07;35.69;101305.38;5012671;28;20089;-49
2023/07/11 09:07:06;;;;;;;6.60;2.38;;;;;;;30.45;36.47;101311.09;5012381;28;20034;-45
2023/07/11 09:09:32;;;;;;;5.53;2.30;;;;;;;30.17;36.38;101306.56;5011390;28;20492;-46
2023/07/11 09:12:10;;;;;;;6.28;2.40;;;;;;;29.89;37.34;101311.84;5012024;28;20065;-47
2023/07/11 09:15:12;;;;;;;10.68;2.50;;;;;;;30.12;38.33;101299.75;5012227;28;20476;-48
2023/07/11 09:18:10;;;;;;;11.50;2.47;;;;;;;29.48;39.14;101300.88;5011836;28;20042;-47
2023/07/11 09:20:44;;;;;;;7.03;2.58;;;;;;;29.63;38.66;101307.19;5011052;28;20071;-45
2023/07/11 09:23:19;;;;;;;7.95;2.30;;;;;;;29.21;39.76;101305.16;5012340;28;20037;-52
2023/07/11 09:25:46;;;;;;;7.68;2.40;;;;;;;28.95;41.35;101299.44;5011860;28;20049;-47
2023/07/11 09:28:23;;;;;;;11.20;2.60;;;;;;;29.27;41.17;101299.41;5012257;28;20468;-48
2023/07/11 09:30:54;;;;;;;6.22;2.17;;;;;;;29.31;40.34;101307.19;5011153;28;20499;-48
2023/07/11 09:33:23;;;;;;;6.22;2.30;;;;;;;29.12;40.22;101308.34;5012260;28;20038;-46
2023/07/11 09:35:50;;;;;;;7.03;2.45;;;;;;;29.21;39.22;101303.31;5011944;28;20080;-48
2023/07/11 09:38:25;;;;;;;10.35;2.40;;;;;;;29.08;39.99;101312.16;5011877;28;20113;-47
2023/07/11 09:41:16;;;;;;;7.53;2.10;;;;;;;29.12;40.80;101302.97;5011258;28;20103;-51
2023/07/11 09:43:41;;;;;;;8.45;2.40;;;;;;;29.24;40.47;101310.31;5011384;28;20069;-48
2023/07/11 09:46:16;;;;;;;6.00;2.15;;;;;;;28.76;40.71;101297.84;5011971;28;20408;-44
2023/07/11 09:48:44;;;;;;;6.45;2.30;;;;;;;28.88;40.75;101300.72;5010754;28;20076;-46
2023/07/11 09:51:31;;;;;;;10.77;2.50;;;;;;;29.54;39.60;101294.28;5011516;28;20036;-46
2023/07/11 09:53:56;;;;;;;8.38;2.40;;;;;;;29.63;39.80;101291.94;5011912;28;20026;-49
2023/07/11 09:56:24;;;;;;;7.93;2.38;;;;;;;29.57;39.64;101286.91;5011859;28;20056;-47
2023/07/11 09:58:52;;;;;;;8.65;2.70;;;;;;;29.70;39.61;101284.38;5010549;28;20044;-46
2023/07/11 10:01:27;;;;;;;10.15;2.75;;;;;;;29.20;41.11;101288.16;5011899;28;20038;-45
2023/07/11 10:03:55;;;;;;;7.65;2.67;;;;;;;29.03;40.04;101281.06;5011938;28;20113;-43
2023/07/11 10:06:29;;;;;;;8.73;3.00;;;;;;;29.46;39.55;101273.22;5012116;28;20489;-48
2023/07/11 10:08:54;;;;;;;7.30;2.72;;;;;;;29.36;38.96;101272.91;5010885;28;20026;-47
2023/07/11 10:11:21;;;;;;;6.97;2.78;;;;;;;29.09;39.53;101279.00;5011800;28;20124;-48
2023/07/11 10:13:46;;;;;;;9.95;2.97;;;;;;;29.74;38.68;101280.53;5011636;28;20500;-44
2023/07/11 10:16:20;;;;;;;8.65;2.90;;;;;;;29.55;38.57;101274.50;5011799;28;20037;-50
2023/07/11 10:18:46;;;;;;;6.18;2.70;;;;;;;29.40;40.06;101271.75;5009287;28;20420;-50
2023/07/11 10:21:16;;;;;;;5.30;2.55;;;;;;;28.99;40.81;101265.22;5011400;28;20026;-45
2023/07/11 10:23:44;;;;;;;7.93;2.58;;;;;;;28.92;41.15;101272.75;5011179;28;20030;-45
2023/07/11 10:26:09;;;;;;;6.18;2.22;;;;;;;29.26;40.55;101278.88;5011517;28;20038;-47
2023/07/11 10:28:43;;;;;;;6.50;2.30;;;;;;;29.57;39.62;101264.56;5010474;28;20084;-47
2023/07/11 10:31:14;;;;;;;5.57;2.10;;;;;;;29.84;39.23;101270.94;5011104;28;20029;-48
2023/07/11 10:34:13;;;;;;;5.65;2.30;;;;;;;28.94;41.66;101268.16;5010505;28;20105;-45
2023/07/11 10:36:48;;;;;;;4.95;2.40;;;;;;;28.96;41.59;101277.00;5010502;28;20034;-50
2023/07/11 10:39:24;;;;;;;6.63;2.40;;;;;;;28.75;41.81;101278.19;5010650;28;20492;-46
2023/07/11 10:42:00;;;;;;;6.07;2.05;;;;;;;28.92;41.79;101267.38;5010303;28;20077;-48
2023/07/11 10:44:36;;;;;;;5.20;2.00;;;;;;;29.38;42.41;101270.16;5011092;28;20038;-46
2023/07/11 10:47:04;;;;;;;6.35;2.58;;;;;;;29.76;40.13;101268.72;5010819;28;20037;-45
2023/07/11 10:49:43;;;;;;;5.70;2.05;;;;;;;29.95;40.16;101270.34;5010329;28;20432;-50
2023/07/11 10:52:19;;;;;;;6.13;2.08;;;;;;;30.16;40.65;101275.25;5010524;28;20084;-46
2023/07/11 10:54:51;;;;;;;5.65;2.53;;;;;;;30.61;37.88;101271.53;5010453;28;20409;-48
2023/07/11 10:57:38;;;;;;;5.75;2.53;;;;;;;30.73;37.13;101263.63;5010818;28;20034;-46
2023/07/11 11:00:08;;;;;;;7.22;2.42;;;;;;;30.29;38.31;101269.13;5009753;28;20034;-48
2023/07/11 11:03:05;;;;;;;5.38;2.45;;;;;;;29.99;39.03;101272.75;5010020;28;20504;-49
2023/07/11 11:05:33;;;;;;;4.55;2.28;;;;;;;30.26;37.65;101267.47;5009858;28;20120;-47
2023/07/11 11:08:10;;;;;;;7.00;2.30;;;;;;;30.14;38.27;101261.03;5010416;28;20044;-46
2023/07/11 11:10:59;;;;;;;6.88;2.30;;;;;;;29.36;39.92;101255.94;5008871;28;20562;-45
2023/07/11 11:13:55;;;;;;;6.18;2.00;;;;;;;29.71;39.98;101249.31;5009096;28;20038;-50
2023/07/11 11:16:29;;;;;;;4.22;1.88;;;;;;;30.04;40.71;101256.31;5010347;28;20042;-48
2023/07/11 11:19:23;;;;;;;5.95;1.95;;;;;;;29.95;40.99;101254.22;5009668;28;20030;-46
2023/07/11 11:22:01;;;;;;;4.63;1.90;;;;;;;29.96;40.38;101251.41;5009761;28;20064;-46
2023/07/11 11:24:43;;;;;;;3.08;1.75;;;;;;;30.12;39.58;101245.97;5010540;28;20038;-44
2023/07/11 11:27:33;;;;;;;4.80;1.90;;;;;;;30.29;39.65;101242.22;5010382;28;20045;-50
2023/07/11 11:30:49;;;;;;;5.85;1.95;;;;;;;30.56;39.22;101252.09;5009512;28;20037;-44